sensor_id;sensor_type;location;lat;lon;timestamp;pressure;altitude;pressure_sealevel;temperature;humidity
25420;BME280;13354;48.174;11.566;2022-08-19T00:01:50;95247.97;;;20.06;87.97
25420;BME280;13354;48.174;11.566;2022-08-19T00:04:16;95260.75;;;19.88;88.13
25420;BME280;13354;48.174;11.566;2022-08-19T00:06:42;95268.50;;;19.79;89.00
25420;BME280;13354;48.174;11.566;2022-08-19T00:09:09;95261.53;;;19.78;89.40
25420;BME280;13354;48.174;11.566;2022-08-19T00:11:35;95256.66;;;19.75;89.83
25420;BME280;13354;48.174;11.566;2022-08-19T00:14:01;95261.25;;;19.75;89.98
25420;BME280;13354;48.174;11.566;2022-08-19T00:16:26;95257.53;;;19.81;88.95
25420;BME280;13354;48.174;11.566;2022-08-19T00:18:52;95262.25;;;19.64;89.82
25420;BME280;13354;48.174;11.566;2022-08-19T00:21:18;95245.38;;;19.73;88.96
25420;BME280;13354;48.174;11.566;2022-08-19T00:23:43;95235.69;;;19.67;89.84
25420;BME280;13354;48.174;11.566;2022-08-19T00:26:09;95211.75;;;19.66;89.33
25420;BME280;13354;48.174;11.566;2022-08-19T00:28:34;95224.56;;;19.59;90.24
25420;BME280;13354;48.174;11.566;2022-08-19T00:31:00;95217.59;;;19.58;90.61
25420;BME280;13354;48.174;11.566;2022-08-19T00:33:26;95209.13;;;19.71;90.04
25420;BME280;13354;48.174;11.566;2022-08-19T00:35:52;95202.16;;;19.75;89.50
25420;BME280;13354;48.174;11.566;2022-08-19T00:38:17;95204.56;;;19.71;90.06
25420;BME280;13354;48.174;11.566;2022-08-19T00:40:43;95210.94;;;19.65;90.78
25420;BME280;13354;48.174;11.566;2022-08-19T00:43:12;95208.56;;;19.69;90.94
25420;BME280;13354;48.174;11.566;2022-08-19T00:45:38;95206.38;;;19.66;90.66
25420;BME280;13354;48.174;11.566;2022-08-19T00:48:06;95212.91;;;19.80;89.54
25420;BME280;13354;48.174;11.566;2022-08-19T00:50:31;95203.25;;;19.79;89.55
25420;BME280;13354;48.174;11.566;2022-08-19T00:52:57;95203.59;;;19.93;88.62
25420;BME280;13354;48.174;11.566;2022-08-19T00:55:25;95191.97;;;19.82;89.18
25420;BME280;13354;48.174;11.566;2022-08-19T00:57:54;95172.94;;;19.89;88.42
25420;BME280;13354;48.174;11.566;2022-08-19T01:00:20;95178.78;;;19.75;89.74
25420;BME280;13354;48.174;11.566;2022-08-19T01:02:46;95184.16;;;19.75;89.85
25420;BME280;13354;48.174;11.566;2022-08-19T01:05:22;95194.50;;;19.57;90.90
25420;BME280;13354;48.174;11.566;2022-08-19T01:07:48;95191.34;;;19.65;90.97
25420;BME280;13354;48.174;11.566;2022-08-19T01:10:16;95185.75;;;19.66;90.85
25420;BME280;13354;48.174;11.566;2022-08-19T01:12:43;95180.41;;;19.76;89.86
25420;BME280;13354;48.174;11.566;2022-08-19T01:15:10;95177.59;;;19.56;90.60
25420;BME280;13354;48.174;11.566;2022-08-19T01:17:36;95183.47;;;19.53;91.10
25420;BME280;13354;48.174;11.566;2022-08-19T01:20:03;95169.34;;;19.63;91.68
25420;BME280;13354;48.174;11.566;2022-08-19T01:22:36;95189.22;;;19.67;90.63
25420;BME280;13354;48.174;11.566;2022-08-19T01:25:05;95184.28;;;19.59;91.29
25420;BME280;13354;48.174;11.566;2022-08-19T01:27:41;95185.66;;;19.56;91.33
25420;BME280;13354;48.174;11.566;2022-08-19T01:30:07;95184.91;;;19.66;91.16
25420;BME280;13354;48.174;11.566;2022-08-19T01:32:33;95191.84;;;19.62;90.55
25420;BME280;13354;48.174;11.566;2022-08-19T01:34:58;95202.09;;;19.65;90.50
25420;BME280;13354;48.174;11.566;2022-08-19T01:37:26;95202.84;;;19.60;90.56
25420;BME280;13354;48.174;11.566;2022-08-19T01:39:51;95213.81;;;19.53;90.26
25420;BME280;13354;48.174;11.566;2022-08-19T01:42:16;95213.09;;;19.63;89.99
25420;BME280;13354;48.174;11.566;2022-08-19T01:44:41;95212.69;;;19.44;91.07
25420;BME280;13354;48.174;11.566;2022-08-19T01:47:07;95213.16;;;19.36;92.29
25420;BME280;13354;48.174;11.566;2022-08-19T01:49:34;95227.44;;;19.42;92.14
25420;BME280;13354;48.174;11.566;2022-08-19T01:51:59;95220.22;;;19.47;91.93
25420;BME280;13354;48.174;11.566;2022-08-19T01:54:25;95221.97;;;19.64;90.36
25420;BME280;13354;48.174;11.566;2022-08-19T01:56:51;95230.41;;;19.45;91.67
25420;BME280;13354;48.174;11.566;2022-08-19T01:59:19;95235.59;;;19.57;90.87
25420;BME280;13354;48.174;11.566;2022-08-19T02:01:45;95229.91;;;19.48;91.61
25420;BME280;13354;48.174;11.566;2022-08-19T02:04:10;95219.75;;;19.55;91.03
25420;BME280;13354;48.174;11.566;2022-08-19T02:06:36;95216.63;;;19.69;89.99
25420;BME280;13354;48.174;11.566;2022-08-19T02:09:02;95219.19;;;19.53;90.46
25420;BME280;13354;48.174;11.566;2022-08-19T02:11:28;95221.47;;;19.72;89.91
25420;BME280;13354;48.174;11.566;2022-08-19T02:13:57;95227.63;;;19.67;90.01
25420;BME280;13354;48.174;11.566;2022-08-19T02:16:23;95234.28;;;19.60;90.07
25420;BME280;13354;48.174;11.566;2022-08-19T02:18:48;95242.84;;;19.57;89.99
25420;BME280;13354;48.174;11.566;2022-08-19T02:21:14;95246.88;;;19.59;89.96
25420;BME280;13354;48.174;11.566;2022-08-19T02:23:40;95247.22;;;19.63;90.09
25420;BME280;13354;48.174;11.566;2022-08-19T02:26:05;95250.31;;;19.54;90.14
25420;BME280;13354;48.174;11.566;2022-08-19T02:28:31;95249.91;;;19.68;89.17
25420;BME280;13354;48.174;11.566;2022-08-19T02:30:57;95249.56;;;19.59;89.43
25420;BME280;13354;48.174;11.566;2022-08-19T02:33:25;95255.75;;;19.60;89.24
25420;BME280;13354;48.174;11.566;2022-08-19T02:35:50;95254.66;;;19.61;88.73
25420;BME280;13354;48.174;11.566;2022-08-19T02:38:15;95257.06;;;19.57;89.05
25420;BME280;13354;48.174;11.566;2022-08-19T02:40:55;95249.06;;;19.62;89.31
25420;BME280;13354;48.174;11.566;2022-08-19T02:43:21;95233.31;;;19.76;88.56
25420;BME280;13354;48.174;11.566;2022-08-19T02:45:47;95226.84;;;19.72;88.32
25420;BME280;13354;48.174;11.566;2022-08-19T02:48:13;95212.38;;;19.78;87.56
25420;BME280;13354;48.174;11.566;2022-08-19T02:50:39;95195.13;;;19.64;89.12
25420;BME280;13354;48.174;11.566;2022-08-19T02:53:05;95184.91;;;19.66;88.46
25420;BME280;13354;48.174;11.566;2022-08-19T02:55:32;95192.50;;;19.74;88.09
25420;BME280;13354;48.174;11.566;2022-08-19T02:57:57;95182.56;;;19.74;87.77
25420;BME280;13354;48.174;11.566;2022-08-19T03:00:22;95179.06;;;19.79;88.17
25420;BME280;13354;48.174;11.566;2022-08-19T03:02:49;95181.78;;;19.84;87.92
25420;BME280;13354;48.174;11.566;2022-08-19T03:05:14;95173.13;;;19.72;87.48
25420;BME280;13354;48.174;11.566;2022-08-19T03:07:39;95179.59;;;19.76;87.71
25420;BME280;13354;48.174;11.566;2022-08-19T03:10:04;95177.47;;;19.78;86.74
25420;BME280;13354;48.174;11.566;2022-08-19T03:12:30;95196.75;;;19.70;87.60
25420;BME280;13354;48.174;11.566;2022-08-19T03:14:55;95204.78;;;19.70;87.87
25420;BME280;13354;48.174;11.566;2022-08-19T03:17:21;95205.38;;;19.77;87.05
25420;BME280;13354;48.174;11.566;2022-08-19T03:19:46;95194.88;;;19.70;87.51
25420;BME280;13354;48.174;11.566;2022-08-19T03:22:11;95185.88;;;19.54;88.48
25420;BME280;13354;48.174;11.566;2022-08-19T03:24:37;95197.97;;;19.52;89.32
25420;BME280;13354;48.174;11.566;2022-08-19T03:27:02;95220.50;;;19.51;89.29
25420;BME280;13354;48.174;11.566;2022-08-19T03:29:29;95233.34;;;19.44;89.53
25420;BME280;13354;48.174;11.566;2022-08-19T03:31:56;95231.22;;;19.46;89.79
25420;BME280;13354;48.174;11.566;2022-08-19T03:34:23;95228.41;;;19.63;88.53
25420;BME280;13354;48.174;11.566;2022-08-19T03:36:51;95233.69;;;19.52;88.97
25420;BME280;13354;48.174;11.566;2022-08-19T03:39:17;95222.34;;;19.45;89.81
25420;BME280;13354;48.174;11.566;2022-08-19T03:41:43;95221.09;;;19.58;89.13
25420;BME280;13354;48.174;11.566;2022-08-19T03:44:08;95219.00;;;19.65;88.45
25420;BME280;13354;48.174;11.566;2022-08-19T03:46:35;95211.22;;;19.64;88.52
25420;BME280;13354;48.174;11.566;2022-08-19T03:49:01;95206.34;;;19.61;88.48
25420;BME280;13354;48.174;11.566;2022-08-19T03:51:37;95212.22;;;19.58;88.83
25420;BME280;13354;48.174;11.566;2022-08-19T03:54:03;95213.63;;;19.65;88.12
25420;BME280;13354;48.174;11.566;2022-08-19T03:56:29;95214.16;;;19.62;87.96
25420;BME280;13354;48.174;11.566;2022-08-19T03:58:55;95215.97;;;19.57;88.77
25420;BME280;13354;48.174;11.566;2022-08-19T04:01:22;95219.47;;;19.57;88.76
25420;BME280;13354;48.174;11.566;2022-08-19T04:03:48;95207.75;;;19.68;88.52
25420;BME280;13354;48.174;11.566;2022-08-19T04:08:39;95209.13;;;19.71;88.87
25420;BME280;13354;48.174;11.566;2022-08-19T04:11:08;95209.41;;;19.74;88.09
25420;BME280;13354;48.174;11.566;2022-08-19T04:13:34;95205.91;;;19.74;88.31
25420;BME280;13354;48.174;11.566;2022-08-19T04:15:59;95202.16;;;19.75;88.01
25420;BME280;13354;48.174;11.566;2022-08-19T04:18:25;95205.13;;;19.78;88.08
25420;BME280;13354;48.174;11.566;2022-08-19T04:20:51;95199.75;;;19.78;87.76
25420;BME280;13354;48.174;11.566;2022-08-19T04:23:16;95199.53;;;19.95;87.15
25420;BME280;13354;48.174;11.566;2022-08-19T04:25:43;95195.00;;;20.01;86.48
25420;BME280;13354;48.174;11.566;2022-08-19T04:28:10;95200.84;;;19.88;87.11
25420;BME280;13354;48.174;11.566;2022-08-19T04:30:43;95201.13;;;19.81;87.93
25420;BME280;13354;48.174;11.566;2022-08-19T04:33:08;95216.31;;;19.65;88.85
25420;BME280;13354;48.174;11.566;2022-08-19T04:35:38;95223.94;;;19.78;88.27
25420;BME280;13354;48.174;11.566;2022-08-19T04:38:04;95228.44;;;19.68;88.71
25420;BME280;13354;48.174;11.566;2022-08-19T04:40:29;95234.59;;;19.68;88.97
25420;BME280;13354;48.174;11.566;2022-08-19T04:43:13;95235.19;;;19.81;87.97
25420;BME280;13354;48.174;11.566;2022-08-19T04:45:40;95246.50;;;19.77;88.02
25420;BME280;13354;48.174;11.566;2022-08-19T04:48:05;95243.00;;;19.82;87.95
25420;BME280;13354;48.174;11.566;2022-08-19T04:50:30;95256.13;;;19.73;88.39
25420;BME280;13354;48.174;11.566;2022-08-19T04:52:56;95252.31;;;19.64;89.12
25420;BME280;13354;48.174;11.566;2022-08-19T04:55:21;95258.03;;;19.78;88.11
25420;BME280;13354;48.174;11.566;2022-08-19T04:57:46;95256.56;;;19.60;88.97
25420;BME280;13354;48.174;11.566;2022-08-19T05:00:11;95259.38;;;19.81;88.24
25420;BME280;13354;48.174;11.566;2022-08-19T05:02:37;95265.22;;;19.67;88.58
25420;BME280;13354;48.174;11.566;2022-08-19T05:05:03;95269.53;;;19.73;88.28
25420;BME280;13354;48.174;11.566;2022-08-19T05:07:28;95268.00;;;19.83;87.27
25420;BME280;13354;48.174;11.566;2022-08-19T05:09:54;95266.53;;;19.65;88.91
25420;BME280;13354;48.174;11.566;2022-08-19T05:12:20;95273.00;;;19.64;89.06
25420;BME280;13354;48.174;11.566;2022-08-19T05:14:45;95278.19;;;19.81;88.10
25420;BME280;13354;48.174;11.566;2022-08-19T05:17:12;95284.34;;;19.76;88.10
25420;BME280;13354;48.174;11.566;2022-08-19T05:19:37;95269.88;;;19.82;86.94
25420;BME280;13354;48.174;11.566;2022-08-19T05:22:21;95264.47;;;19.77;87.58
25420;BME280;13354;48.174;11.566;2022-08-19T05:25:03;95272.19;;;19.63;88.05
25420;BME280;13354;48.174;11.566;2022-08-19T05:27:29;95277.88;;;19.77;88.03
25420;BME280;13354;48.174;11.566;2022-08-19T05:29:54;95269.09;;;19.87;87.13
25420;BME280;13354;48.174;11.566;2022-08-19T05:32:19;95255.31;;;19.73;87.49
25420;BME280;13354;48.174;11.566;2022-08-19T05:34:44;95261.88;;;19.92;86.43
25420;BME280;13354;48.174;11.566;2022-08-19T05:37:10;95255.94;;;19.85;86.67
25420;BME280;13354;48.174;11.566;2022-08-19T05:39:35;95260.63;;;19.63;88.32
25420;BME280;13354;48.174;11.566;2022-08-19T05:42:03;95256.13;;;19.73;87.83
25420;BME280;13354;48.174;11.566;2022-08-19T05:44:30;95257.81;;;19.85;86.79
25420;BME280;13354;48.174;11.566;2022-08-19T05:46:58;95251.75;;;19.62;87.91
25420;BME280;13354;48.174;11.566;2022-08-19T05:49:24;95248.81;;;19.64;88.52
25420;BME280;13354;48.174;11.566;2022-08-19T05:51:50;95254.78;;;19.71;87.79
25420;BME280;13354;48.174;11.566;2022-08-19T05:54:16;95251.69;;;19.57;88.92
25420;BME280;13354;48.174;11.566;2022-08-19T05:56:42;95251.13;;;19.55;88.87
25420;BME280;13354;48.174;11.566;2022-08-19T05:59:08;95251.81;;;19.72;88.33
25420;BME280;13354;48.174;11.566;2022-08-19T06:01:39;95257.31;;;19.93;86.91
25420;BME280;13354;48.174;11.566;2022-08-19T06:04:05;95262.84;;;19.76;87.54
25420;BME280;13354;48.174;11.566;2022-08-19T06:06:31;95263.94;;;19.80;88.11
25420;BME280;13354;48.174;11.566;2022-08-19T06:08:58;95257.81;;;19.85;86.99
25420;BME280;13354;48.174;11.566;2022-08-19T06:14:00;95254.34;;;19.94;86.21
25420;BME280;13354;48.174;11.566;2022-08-19T06:16:26;95257.88;;;20.00;86.15
25420;BME280;13354;48.174;11.566;2022-08-19T06:18:53;95271.28;;;19.95;86.18
25420;BME280;13354;48.174;11.566;2022-08-19T06:21:22;95267.50;;;19.91;86.29
25420;BME280;13354;48.174;11.566;2022-08-19T06:23:48;95264.00;;;19.90;86.69
25420;BME280;13354;48.174;11.566;2022-08-19T06:26:14;95269.59;;;19.84;87.18
25420;BME280;13354;48.174;11.566;2022-08-19T06:28:40;95268.38;;;20.01;86.20
25420;BME280;13354;48.174;11.566;2022-08-19T06:31:11;95269.69;;;19.99;85.96
25420;BME280;13354;48.174;11.566;2022-08-19T06:33:39;95260.88;;;20.14;85.44
25420;BME280;13354;48.174;11.566;2022-08-19T06:36:04;95267.34;;;20.13;85.42
25420;BME280;13354;48.174;11.566;2022-08-19T06:38:29;95262.25;;;20.11;85.39
25420;BME280;13354;48.174;11.566;2022-08-19T06:41:02;95265.69;;;20.07;85.49
25420;BME280;13354;48.174;11.566;2022-08-19T06:43:27;95267.31;;;20.08;85.77
25420;BME280;13354;48.174;11.566;2022-08-19T06:45:53;95271.63;;;20.03;85.65
25420;BME280;13354;48.174;11.566;2022-08-19T06:48:20;95260.41;;;20.22;85.09
25420;BME280;13354;48.174;11.566;2022-08-19T06:50:45;95269.75;;;20.09;86.34
25420;BME280;13354;48.174;11.566;2022-08-19T06:53:10;95273.22;;;20.05;86.20
25420;BME280;13354;48.174;11.566;2022-08-19T06:55:35;95275.72;;;20.21;85.31
25420;BME280;13354;48.174;11.566;2022-08-19T06:58:02;95280.50;;;20.09;85.74
25420;BME280;13354;48.174;11.566;2022-08-19T07:00:28;95273.78;;;20.12;86.72
25420;BME280;13354;48.174;11.566;2022-08-19T07:02:53;95266.81;;;20.11;86.86
25420;BME280;13354;48.174;11.566;2022-08-19T07:05:18;95266.81;;;20.16;87.12
25420;BME280;13354;48.174;11.566;2022-08-19T07:07:43;95262.25;;;20.16;86.84
25420;BME280;13354;48.174;11.566;2022-08-19T07:10:09;95257.16;;;20.25;86.48
25420;BME280;13354;48.174;11.566;2022-08-19T07:12:34;95259.38;;;20.33;86.60
25420;BME280;13354;48.174;11.566;2022-08-19T07:15:00;95255.31;;;20.25;87.27
25420;BME280;13354;48.174;11.566;2022-08-19T07:17:25;95254.25;;;20.26;88.17
25420;BME280;13354;48.174;11.566;2022-08-19T07:19:51;95247.25;;;20.25;87.43
25420;BME280;13354;48.174;11.566;2022-08-19T07:22:16;95246.69;;;20.28;87.13
25420;BME280;13354;48.174;11.566;2022-08-19T07:24:42;95238.91;;;20.22;87.76
25420;BME280;13354;48.174;11.566;2022-08-19T07:27:08;95222.31;;;20.40;87.79
25420;BME280;13354;48.174;11.566;2022-08-19T07:29:35;95232.47;;;20.28;88.00
25420;BME280;13354;48.174;11.566;2022-08-19T07:32:01;95216.94;;;20.40;87.43
25420;BME280;13354;48.174;11.566;2022-08-19T07:34:27;95218.25;;;20.38;87.98
25420;BME280;13354;48.174;11.566;2022-08-19T07:36:53;95216.66;;;20.42;87.31
25420;BME280;13354;48.174;11.566;2022-08-19T07:39:20;95210.00;;;20.60;87.12
25420;BME280;13354;48.174;11.566;2022-08-19T07:41:46;95210.03;;;20.70;85.69
25420;BME280;13354;48.174;11.566;2022-08-19T07:44:12;95211.13;;;20.84;84.96
25420;BME280;13354;48.174;11.566;2022-08-19T07:46:39;95209.50;;;20.78;84.90
25420;BME280;13354;48.174;11.566;2022-08-19T07:49:05;95222.69;;;20.85;84.54
25420;BME280;13354;48.174;11.566;2022-08-19T07:51:30;95224.03;;;21.03;83.54
25420;BME280;13354;48.174;11.566;2022-08-19T07:53:56;95229.16;;;20.99;83.52
25420;BME280;13354;48.174;11.566;2022-08-19T07:56:21;95228.63;;;21.17;82.35
25420;BME280;13354;48.174;11.566;2022-08-19T07:58:47;95223.75;;;20.94;82.77
25420;BME280;13354;48.174;11.566;2022-08-19T08:01:23;95237.50;;;20.92;83.67
25420;BME280;13354;48.174;11.566;2022-08-19T08:03:49;95242.88;;;20.92;83.38
25420;BME280;13354;48.174;11.566;2022-08-19T08:06:34;95247.94;;;20.84;84.54
25420;BME280;13354;48.174;11.566;2022-08-19T08:09:20;95247.16;;;20.83;84.02
25420;BME280;13354;48.174;11.566;2022-08-19T08:14:20;95237.47;;;20.87;83.74
25420;BME280;13354;48.174;11.566;2022-08-19T08:16:47;95239.91;;;20.94;82.93
25420;BME280;13354;48.174;11.566;2022-08-19T08:19:13;95243.41;;;20.99;83.25
25420;BME280;13354;48.174;11.566;2022-08-19T08:21:40;95249.56;;;20.80;83.72
25420;BME280;13354;48.174;11.566;2022-08-19T08:24:05;95259.50;;;20.59;85.10
25420;BME280;13354;48.174;11.566;2022-08-19T08:26:31;95262.09;;;20.48;85.25
25420;BME280;13354;48.174;11.566;2022-08-19T08:28:56;95258.06;;;20.41;86.39
25420;BME280;13354;48.174;11.566;2022-08-19T08:31:21;95256.19;;;20.46;86.67
25420;BME280;13354;48.174;11.566;2022-08-19T08:33:47;95255.66;;;20.44;86.71
25420;BME280;13354;48.174;11.566;2022-08-19T08:36:12;95260.53;;;20.53;86.92
25420;BME280;13354;48.174;11.566;2022-08-19T08:38:41;95263.16;;;20.37;87.72
25420;BME280;13354;48.174;11.566;2022-08-19T08:43:52;95265.84;;;20.37;88.74
25420;BME280;13354;48.174;11.566;2022-08-19T08:46:29;95275.34;;;20.65;86.39
25420;BME280;13354;48.174;11.566;2022-08-19T08:49:00;95269.16;;;20.55;86.13
25420;BME280;13354;48.174;11.566;2022-08-19T08:51:27;95275.63;;;20.59;86.51
25420;BME280;13354;48.174;11.566;2022-08-19T08:53:54;95278.03;;;20.60;86.03
25420;BME280;13354;48.174;11.566;2022-08-19T08:56:19;95274.53;;;20.60;85.71
25420;BME280;13354;48.174;11.566;2022-08-19T08:58:48;95274.00;;;20.58;86.06
25420;BME280;13354;48.174;11.566;2022-08-19T09:01:16;95278.03;;;20.65;86.32
25420;BME280;13354;48.174;11.566;2022-08-19T09:03:41;95280.94;;;20.48;87.83
25420;BME280;13354;48.174;11.566;2022-08-19T09:06:12;95288.25;;;20.58;88.08
25420;BME280;13354;48.174;11.566;2022-08-19T09:14:08;95293.56;;;20.48;89.34
25420;BME280;13354;48.174;11.566;2022-08-19T09:16:35;95294.13;;;20.50;89.38
25420;BME280;13354;48.174;11.566;2022-08-19T09:19:02;95289.03;;;20.54;89.11
25420;BME280;13354;48.174;11.566;2022-08-19T09:21:27;95288.72;;;20.45;89.21
25420;BME280;13354;48.174;11.566;2022-08-19T09:23:53;95289.81;;;20.49;88.92
25420;BME280;13354;48.174;11.566;2022-08-19T09:26:19;95291.91;;;20.37;89.83
25420;BME280;13354;48.174;11.566;2022-08-19T09:28:46;95290.63;;;20.49;89.47
25420;BME280;13354;48.174;11.566;2022-08-19T09:31:12;95297.03;;;20.43;89.53
25420;BME280;13354;48.174;11.566;2022-08-19T09:33:37;95292.72;;;20.42;89.73
25420;BME280;13354;48.174;11.566;2022-08-19T09:36:04;95299.97;;;20.37;89.95
25420;BME280;13354;48.174;11.566;2022-08-19T09:38:31;95292.41;;;20.28;90.30
25420;BME280;13354;48.174;11.566;2022-08-19T09:41:01;95296.44;;;20.26;91.29
25420;BME280;13354;48.174;11.566;2022-08-19T09:43:26;95292.16;;;20.30;92.54
25420;BME280;13354;48.174;11.566;2022-08-19T09:45:53;95286.84;;;20.45;90.25
25420;BME280;13354;48.174;11.566;2022-08-19T09:48:18;95274.19;;;20.46;89.64
25420;BME280;13354;48.174;11.566;2022-08-19T09:50:44;95281.53;;;20.56;89.46
25420;BME280;13354;48.174;11.566;2022-08-19T09:53:09;95271.25;;;20.47;89.24
25420;BME280;13354;48.174;11.566;2022-08-19T09:55:34;95271.06;;;20.59;88.69
25420;BME280;13354;48.174;11.566;2022-08-19T09:58:00;95281.81;;;20.59;89.54
25420;BME280;13354;48.174;11.566;2022-08-19T10:00:26;95283.69;;;20.59;89.93
25420;BME280;13354;48.174;11.566;2022-08-19T10:02:51;95284.28;;;20.81;89.57
25420;BME280;13354;48.174;11.566;2022-08-19T10:05:17;95289.66;;;20.81;91.29
25420;BME280;13354;48.174;11.566;2022-08-19T10:08:00;95293.66;;;20.63;95.56
25420;BME280;13354;48.174;11.566;2022-08-19T10:10:26;95291.19;;;20.57;97.35
25420;BME280;13354;48.174;11.566;2022-08-19T10:12:51;95298.41;;;20.46;98.95
25420;BME280;13354;48.174;11.566;2022-08-19T10:15:16;95298.47;;;20.61;96.72
25420;BME280;13354;48.174;11.566;2022-08-19T10:17:46;95302.25;;;20.65;97.94
25420;BME280;13354;48.174;11.566;2022-08-19T10:20:11;95295.53;;;20.68;95.94
25420;BME280;13354;48.174;11.566;2022-08-19T10:22:37;95286.69;;;20.83;94.30
25420;BME280;13354;48.174;11.566;2022-08-19T10:25:03;95281.34;;;20.88;92.96
25420;BME280;13354;48.174;11.566;2022-08-19T10:27:28;95273.53;;;20.86;94.56
25420;BME280;13354;48.174;11.566;2022-08-19T10:29:53;95284.31;;;20.91;94.88
25420;BME280;13354;48.174;11.566;2022-08-19T10:32:18;95287.28;;;21.05;93.98
25420;BME280;13354;48.174;11.566;2022-08-19T10:34:44;95279.47;;;21.24;89.71
25420;BME280;13354;48.174;11.566;2022-08-19T10:37:09;95283.56;;;21.37;91.60
25420;BME280;13354;48.174;11.566;2022-08-19T10:39:35;95278.47;;;21.51;90.45
25420;BME280;13354;48.174;11.566;2022-08-19T10:42:04;95274.94;;;21.55;86.45
25420;BME280;13354;48.174;11.566;2022-08-19T10:44:29;95273.28;;;21.80;87.83
25420;BME280;13354;48.174;11.566;2022-08-19T10:46:56;95271.09;;;22.02;86.99
25420;BME280;13354;48.174;11.566;2022-08-19T10:49:21;95275.38;;;22.13;87.92
25420;BME280;13354;48.174;11.566;2022-08-19T10:51:49;95284.72;;;22.41;83.39
25420;BME280;13354;48.174;11.566;2022-08-19T10:54:32;95289.06;;;22.42;79.79
25420;BME280;13354;48.174;11.566;2022-08-19T10:57:16;95278.56;;;22.31;80.14
25420;BME280;13354;48.174;11.566;2022-08-19T10:59:42;95278.53;;;22.41;77.43
25420;BME280;13354;48.174;11.566;2022-08-19T11:02:08;95280.16;;;22.37;77.37
25420;BME280;13354;48.174;11.566;2022-08-19T11:04:34;95279.41;;;22.16;78.47
25420;BME280;13354;48.174;11.566;2022-08-19T11:07:00;95273.78;;;22.17;79.30
25420;BME280;13354;48.174;11.566;2022-08-19T11:09:25;95272.69;;;22.03;80.54
25420;BME280;13354;48.174;11.566;2022-08-19T11:11:52;95270.28;;;21.97;80.26
25420;BME280;13354;48.174;11.566;2022-08-19T11:14:19;95264.59;;;22.13;80.10
25420;BME280;13354;48.174;11.566;2022-08-19T11:16:45;95261.06;;;22.23;79.20
25420;BME280;13354;48.174;11.566;2022-08-19T11:19:11;95254.91;;;21.97;80.42
25420;BME280;13354;48.174;11.566;2022-08-19T11:21:41;95250.66;;;21.91;80.61
25420;BME280;13354;48.174;11.566;2022-08-19T11:24:08;95252.84;;;21.74;79.77
25420;BME280;13354;48.174;11.566;2022-08-19T11:26:34;95259.56;;;21.71;81.02
25420;BME280;13354;48.174;11.566;2022-08-19T11:29:00;95256.00;;;21.96;79.18
25420;BME280;13354;48.174;11.566;2022-08-19T11:31:29;95258.66;;;22.22;78.71
25420;BME280;13354;48.174;11.566;2022-08-19T11:33:56;95268.34;;;22.12;78.70
25420;BME280;13354;48.174;11.566;2022-08-19T11:36:22;95266.47;;;22.08;78.03
25420;BME280;13354;48.174;11.566;2022-08-19T11:38:48;95257.84;;;22.11;77.44
25420;BME280;13354;48.174;11.566;2022-08-19T11:41:13;95260.81;;;22.04;78.06
25420;BME280;13354;48.174;11.566;2022-08-19T11:43:39;95267.84;;;22.00;78.31
25420;BME280;13354;48.174;11.566;2022-08-19T11:46:05;95258.13;;;22.09;78.69
25420;BME280;13354;48.174;11.566;2022-08-19T11:48:31;95254.09;;;22.02;78.40
25420;BME280;13354;48.174;11.566;2022-08-19T11:50:57;95255.19;;;22.06;78.22
25420;BME280;13354;48.174;11.566;2022-08-19T11:53:22;95255.97;;;22.16;78.72
25420;BME280;13354;48.174;11.566;2022-08-19T11:55:48;95258.84;;;22.40;76.80
25420;BME280;13354;48.174;11.566;2022-08-19T11:58:14;95268.09;;;22.24;77.43
25420;BME280;13354;48.174;11.566;2022-08-19T12:03:05;95268.59;;;22.26;75.53
25420;BME280;13354;48.174;11.566;2022-08-19T12:05:31;95272.88;;;22.42;75.60
25420;BME280;13354;48.174;11.566;2022-08-19T12:07:56;95276.47;;;22.17;76.80
25420;BME280;13354;48.174;11.566;2022-08-19T12:10:21;95275.91;;;22.05;77.39
25420;BME280;13354;48.174;11.566;2022-08-19T12:12:47;95267.28;;;22.13;77.38
25420;BME280;13354;48.174;11.566;2022-08-19T12:15:12;95274.56;;;22.13;77.06
25420;BME280;13354;48.174;11.566;2022-08-19T12:17:39;95274.56;;;22.13;76.75
25420;BME280;13354;48.174;11.566;2022-08-19T12:20:05;95280.25;;;22.01;77.38
25420;BME280;13354;48.174;11.566;2022-08-19T12:22:31;95282.97;;;21.91;77.31
25420;BME280;13354;48.174;11.566;2022-08-19T12:24:56;95294.25;;;21.98;77.05
25420;BME280;13354;48.174;11.566;2022-08-19T12:27:22;95300.22;;;21.85;78.26
25420;BME280;13354;48.174;11.566;2022-08-19T12:29:47;95292.13;;;21.90;77.77
25420;BME280;13354;48.174;11.566;2022-08-19T12:32:12;95292.69;;;21.92;77.90
25420;BME280;13354;48.174;11.566;2022-08-19T12:34:37;95289.44;;;21.90;77.67
25420;BME280;13354;48.174;11.566;2022-08-19T12:37:04;95288.06;;;21.98;77.38
25420;BME280;13354;48.174;11.566;2022-08-19T12:39:29;95283.75;;;22.07;76.70
25420;BME280;13354;48.174;11.566;2022-08-19T12:41:56;95283.44;;;22.29;75.70
25420;BME280;13354;48.174;11.566;2022-08-19T12:44:21;95281.06;;;22.77;74.35
25420;BME280;13354;48.174;11.566;2022-08-19T12:46:47;95283.81;;;23.16;74.07
25420;BME280;13354;48.174;11.566;2022-08-19T12:49:12;95288.31;;;23.31;72.53
25420;BME280;13354;48.174;11.566;2022-08-19T12:51:37;95291.38;;;23.14;71.55
25420;BME280;13354;48.174;11.566;2022-08-19T12:54:03;95290.41;;;23.34;71.29
25420;BME280;13354;48.174;11.566;2022-08-19T12:56:29;95291.06;;;23.21;69.82
25420;BME280;13354;48.174;11.566;2022-08-19T12:58:54;95289.03;;;23.02;71.22
25420;BME280;13354;48.174;11.566;2022-08-19T13:01:20;95292.13;;;23.20;70.32
25420;BME280;13354;48.174;11.566;2022-08-19T13:03:46;95294.16;;;23.04;69.88
25420;BME280;13354;48.174;11.566;2022-08-19T13:06:11;95307.50;;;22.80;71.21